createdAt,value
2022-12-18T00:02:36.423Z,4.06
2022-12-18T00:05:52.427Z,4.11
2022-12-18T00:08:59.104Z,4.05
2022-12-18T00:15:22.359Z,4.08
2022-12-18T00:18:28.075Z,3.75
2022-12-18T00:21:34.266Z,3.84
2022-12-18T00:24:39.789Z,3.79
2022-12-18T00:27:45.212Z,3.97
2022-12-18T00:30:52.683Z,3.94
2022-12-18T00:33:58.968Z,4.13
2022-12-18T00:37:04.531Z,3.87
2022-12-18T00:40:10.897Z,4.01
2022-12-18T00:43:16.697Z,4.02
2022-12-18T00:46:22.085Z,3.82
2022-12-18T00:49:27.908Z,3.92
2022-12-18T00:52:34.043Z,3.86
2022-12-18T00:55:41.095Z,3.92
2022-12-18T00:58:46.571Z,3.84
2022-12-18T01:01:52.337Z,3.84
2022-12-18T01:04:59.784Z,4.07
2022-12-18T01:08:05.393Z,3.98
2022-12-18T01:11:21.893Z,3.95
2022-12-18T01:14:27.381Z,3.85
2022-12-18T01:17:32.597Z,3.90
2022-12-18T01:20:40.354Z,3.99
2022-12-18T01:23:45.953Z,4.24
2022-12-18T01:26:51.470Z,4.17
2022-12-18T01:29:56.991Z,4.32
2022-12-18T01:33:02.680Z,4.37
2022-12-18T01:36:08.798Z,4.33
2022-12-18T01:39:16.258Z,4.39
2022-12-18T01:42:23.126Z,4.41
2022-12-18T01:45:30.775Z,4.46
2022-12-18T01:48:36.707Z,4.55
2022-12-18T01:51:43.267Z,4.64
2022-12-18T01:54:51.941Z,4.59
2022-12-18T01:58:02.028Z,4.54
2022-12-18T02:01:07.809Z,4.46
2022-12-18T02:04:28.425Z,4.41
2022-12-18T02:07:49.771Z,4.47
2022-12-18T02:11:11.910Z,4.44
2022-12-18T02:14:59.126Z,4.52
2022-12-18T02:18:12.540Z,4.69
2022-12-18T02:21:20.968Z,4.68
2022-12-18T02:24:35.424Z,4.66
2022-12-18T02:27:46.554Z,4.66
2022-12-18T02:30:54.736Z,4.66
2022-12-18T02:34:04.085Z,4.65
2022-12-18T02:37:17.776Z,4.64
2022-12-18T02:40:28.119Z,4.62
2022-12-18T02:43:33.897Z,4.60
2022-12-18T02:46:47.667Z,4.56
2022-12-18T02:50:28.226Z,4.32
2022-12-18T02:53:50.494Z,4.05
2022-12-18T02:57:02.795Z,4.10
2022-12-18T03:00:15.826Z,4.11
2022-12-18T03:03:41.854Z,4.08
2022-12-18T03:06:55.060Z,3.97
2022-12-18T03:10:02.674Z,4.03
2022-12-18T03:13:16.834Z,4.25
2022-12-18T03:16:30.706Z,4.19
2022-12-18T03:19:37.172Z,4.22
2022-12-18T03:22:47.708Z,4.07
2022-12-18T03:26:03.052Z,3.89
2022-12-18T03:29:42.075Z,4.09
2022-12-18T03:33:10.352Z,4.27
2022-12-18T03:36:20.157Z,4.33
2022-12-18T03:39:27.026Z,4.37
2022-12-18T03:42:38.646Z,4.21
2022-12-18T03:45:55.607Z,4.16
2022-12-18T03:49:03.726Z,4.32
2022-12-18T03:52:18.437Z,4.39
2022-12-18T03:55:27.607Z,4.44
2022-12-18T03:58:41.478Z,4.48
2022-12-18T04:02:01.011Z,4.50
2022-12-18T04:05:10.479Z,4.48
2022-12-18T04:08:19.207Z,4.48
2022-12-18T04:11:32.494Z,4.45
2022-12-18T04:14:40.971Z,4.12
2022-12-18T04:17:50.779Z,4.24
2022-12-18T04:20:59.955Z,4.24
2022-12-18T04:24:06.231Z,4.39
2022-12-18T04:27:14.141Z,4.44
2022-12-18T04:30:24.168Z,4.49
2022-12-18T04:33:29.993Z,4.50
2022-12-18T04:36:35.683Z,4.38
2022-12-18T04:39:41.234Z,4.14
2022-12-18T04:42:53.647Z,3.67
2022-12-18T04:46:07.333Z,3.88
2022-12-18T04:49:12.736Z,4.28
2022-12-18T04:52:18.264Z,4.29
2022-12-18T04:55:27.142Z,4.41
2022-12-18T04:58:32.463Z,4.40
2022-12-18T05:01:37.997Z,4.39
2022-12-18T05:04:43.756Z,4.29
2022-12-18T05:07:49.176Z,4.41
2022-12-18T05:11:10.143Z,4.28
2022-12-18T05:14:16.605Z,4.33
2022-12-18T05:17:21.921Z,4.26
2022-12-18T05:20:28.378Z,4.25
2022-12-18T05:23:37.674Z,4.23
2022-12-18T05:26:43.394Z,4.25
2022-12-18T05:29:48.813Z,4.26
2022-12-18T05:32:54.627Z,4.14
2022-12-18T05:36:03.384Z,4.15
2022-12-18T05:39:09.185Z,4.11
2022-12-18T05:42:14.729Z,4.01
2022-12-18T05:45:21.732Z,4.19
2022-12-18T05:48:27.399Z,4.20
2022-12-18T05:51:33.197Z,4.23
2022-12-18T05:54:38.876Z,4.18
2022-12-18T05:57:44.536Z,4.17
2022-12-18T06:00:49.784Z,4.12
2022-12-18T06:03:56.487Z,4.13
2022-12-18T06:07:04.774Z,4.10
2022-12-18T06:10:10.590Z,4.18
2022-12-18T06:13:16.529Z,4.17
2022-12-18T06:16:22.205Z,4.19
2022-12-18T06:19:28.065Z,4.23
2022-12-18T06:22:33.786Z,4.14
2022-12-18T06:25:40.704Z,4.16
2022-12-18T06:28:46.332Z,4.13
2022-12-18T06:31:51.857Z,3.98
2022-12-18T06:34:57.414Z,4.10
2022-12-18T06:38:03.782Z,4.07
2022-12-18T06:41:10.540Z,4.07
2022-12-18T06:44:16.153Z,3.95
2022-12-18T06:47:21.882Z,3.82
2022-12-18T06:50:28.027Z,3.82
2022-12-18T06:53:34.159Z,3.85
2022-12-18T06:56:39.962Z,3.92
2022-12-18T06:59:45.926Z,4.05
2022-12-18T07:02:51.615Z,4.05
2022-12-18T07:05:57.472Z,4.07
2022-12-18T07:09:02.851Z,3.66
2022-12-18T07:12:09.395Z,3.68
2022-12-18T07:15:15.248Z,3.91
2022-12-18T07:18:20.608Z,3.99
2022-12-18T07:21:26.663Z,3.84
2022-12-18T07:24:34.984Z,3.83
2022-12-18T07:27:41.301Z,3.92
2022-12-18T07:30:46.599Z,4.09
2022-12-18T07:33:53.598Z,4.22
2022-12-18T07:36:59.293Z,4.28
2022-12-18T07:40:05.032Z,4.33
2022-12-18T07:43:10.488Z,4.27
2022-12-18T07:46:17.467Z,4.36
2022-12-18T07:49:22.815Z,4.41
2022-12-18T07:52:28.325Z,4.36
2022-12-18T07:55:54.819Z,4.53
2022-12-18T07:59:00.467Z,4.64
2022-12-18T08:02:09.132Z,4.71
2022-12-18T08:05:14.858Z,4.83
2022-12-18T08:08:20.572Z,4.90
2022-12-18T08:11:28.281Z,4.87
2022-12-18T08:14:33.357Z,4.77
2022-12-18T08:17:38.712Z,4.94
2022-12-18T08:20:44.070Z,4.97
2022-12-18T08:23:51.153Z,5.04
2022-12-18T08:27:27.819Z,5.01
2022-12-18T08:30:23.806Z,5.09
2022-12-18T08:33:29.504Z,5.13
2022-12-18T08:36:34.744Z,5.19
2022-12-18T08:39:39.706Z,5.13
2022-12-18T08:43:03.051Z,5.22
2022-12-18T08:46:08.431Z,5.34
2022-12-18T08:49:13.894Z,5.46
2022-12-18T08:52:19.340Z,5.46
2022-12-18T08:55:24.505Z,5.52
2022-12-18T08:58:30.631Z,5.56
2022-12-18T09:01:36.607Z,5.58
2022-12-18T09:04:42.596Z,5.76
2022-12-18T09:07:48.188Z,5.82
2022-12-18T09:10:53.781Z,5.86
2022-12-18T09:14:01.287Z,5.93
2022-12-18T09:17:06.903Z,6.01
2022-12-18T09:20:12.448Z,6.01
2022-12-18T09:23:17.912Z,6.11
2022-12-18T09:26:25.500Z,6.43
2022-12-18T09:29:31.662Z,6.33
2022-12-18T09:32:36.845Z,6.35
2022-12-18T09:35:44.036Z,6.55
2022-12-18T09:38:49.666Z,6.65
2022-12-18T09:41:58.895Z,6.77
2022-12-18T09:45:04.875Z,6.96
2022-12-18T09:48:22.231Z,6.91
2022-12-18T09:51:41.149Z,6.76
2022-12-18T09:55:11.959Z,6.84
2022-12-18T09:58:27.125Z,6.92
2022-12-18T10:01:43.212Z,6.83
2022-12-18T10:05:13.131Z,6.90
2022-12-18T10:08:50.549Z,7.10
2022-12-18T10:11:59.096Z,7.19
2022-12-18T10:15:13.000Z,7.30
2022-12-18T10:18:34.875Z,7.26
2022-12-18T10:21:46.780Z,7.33
2022-12-18T10:25:07.434Z,7.23
2022-12-18T10:28:15.672Z,7.21
2022-12-18T10:31:25.164Z,7.40
2022-12-18T10:34:30.625Z,7.52
2022-12-18T10:37:36.327Z,7.53
2022-12-18T10:40:55.336Z,7.33
2022-12-18T10:44:22.661Z,7.52
2022-12-18T10:47:28.392Z,7.30
2022-12-18T10:51:09.854Z,7.20
2022-12-18T10:54:18.305Z,7.30
2022-12-18T10:57:37.391Z,7.32
2022-12-18T11:00:42.798Z,7.44
2022-12-18T11:04:03.061Z,7.11
2022-12-18T11:07:11.428Z,7.31
2022-12-18T11:10:20.970Z,7.41
2022-12-18T11:13:30.927Z,7.30
2022-12-18T11:17:03.003Z,7.36
2022-12-18T11:20:35.828Z,7.23
2022-12-18T11:23:52.840Z,7.17
2022-12-18T11:27:05.234Z,7.34
2022-12-18T11:30:19.688Z,7.43
2022-12-18T11:33:25.541Z,7.36
2022-12-18T11:36:38.074Z,7.38
2022-12-18T11:39:55.815Z,7.26
2022-12-18T11:43:24.947Z,7.60
2022-12-18T11:46:37.565Z,7.60
2022-12-18T11:49:43.823Z,7.52
2022-12-18T11:52:55.943Z,7.63
2022-12-18T11:56:37.573Z,7.49
2022-12-18T11:59:53.927Z,7.53
2022-12-18T12:03:17.638Z,7.45
2022-12-18T12:06:39.917Z,7.39
2022-12-18T12:09:57.454Z,7.60
2022-12-18T12:13:17.971Z,7.51
2022-12-18T12:16:53.292Z,7.75
2022-12-18T12:20:07.326Z,7.74
2022-12-18T12:23:33.261Z,7.56
2022-12-18T12:27:23.517Z,7.57
2022-12-18T12:30:45.487Z,7.65
2022-12-18T12:34:10.513Z,7.67
2022-12-18T12:37:52.047Z,7.77
2022-12-18T12:41:28.496Z,7.77
2022-12-18T12:44:41.006Z,7.75
2022-12-18T12:47:48.157Z,7.81
2022-12-18T12:50:55.501Z,7.71
2022-12-18T12:54:05.864Z,7.79
2022-12-18T12:57:24.095Z,7.73
2022-12-18T13:00:41.108Z,7.87
2022-12-18T13:04:24.679Z,7.98
2022-12-18T13:07:39.383Z,7.85
2022-12-18T13:10:45.218Z,7.75
2022-12-18T13:13:57.363Z,7.65
2022-12-18T13:17:16.423Z,7.86
2022-12-18T13:20:22.643Z,7.72
2022-12-18T13:23:40.523Z,7.69
2022-12-18T13:26:47.035Z,7.66
2022-12-18T13:29:53.217Z,7.60
2022-12-18T13:33:17.790Z,7.61
2022-12-18T13:36:34.836Z,7.62
2022-12-18T13:39:40.906Z,7.65
2022-12-18T13:43:04.989Z,7.67
2022-12-18T13:46:32.189Z,7.69
2022-12-18T13:49:41.465Z,7.65
2022-12-18T13:52:47.076Z,7.63
2022-12-18T13:55:53.466Z,7.59
2022-12-18T13:59:23.264Z,7.55
2022-12-18T14:02:31.315Z,7.61
2022-12-18T14:05:40.242Z,7.60
2022-12-18T14:08:49.313Z,7.61
2022-12-18T14:12:17.148Z,7.52
2022-12-18T14:15:33.112Z,7.51
2022-12-18T14:18:49.677Z,7.57
2022-12-18T14:21:55.437Z,7.48
2022-12-18T14:25:17.030Z,7.39
2022-12-18T14:28:27.451Z,7.34
2022-12-18T14:31:33.338Z,7.40
2022-12-18T14:34:38.741Z,7.32
2022-12-18T14:37:44.073Z,7.35
2022-12-18T14:40:53.699Z,7.23
2022-12-18T14:44:08.371Z,7.21
2022-12-18T14:47:17.950Z,7.20
2022-12-18T14:50:23.903Z,7.12
2022-12-18T14:54:01.876Z,7.02
2022-12-18T14:57:17.828Z,6.93
2022-12-18T15:00:25.934Z,6.76
2022-12-18T15:03:31.399Z,6.81
2022-12-18T15:06:39.073Z,6.68
2022-12-18T15:10:03.137Z,6.62
2022-12-18T15:13:11.299Z,6.64
2022-12-18T15:16:18.241Z,6.61
2022-12-18T15:19:40.076Z,6.51
2022-12-18T15:22:48.753Z,6.50
2022-12-18T15:26:03.673Z,6.35
2022-12-18T15:29:22.005Z,6.36
2022-12-18T15:32:27.526Z,6.33
2022-12-18T15:35:32.998Z,6.20
2022-12-18T15:38:38.454Z,6.09
2022-12-18T15:42:04.804Z,6.02
2022-12-18T15:45:14.065Z,6.03
2022-12-18T15:48:24.567Z,5.91
2022-12-18T15:51:38.207Z,5.86
2022-12-18T15:55:02.549Z,5.76
2022-12-18T15:58:09.366Z,5.75
2022-12-18T16:01:15.397Z,5.58
2022-12-18T16:04:23.270Z,5.50
2022-12-18T16:07:30.703Z,5.43
2022-12-18T16:10:36.931Z,5.47
2022-12-18T16:13:44.253Z,5.39
2022-12-18T16:16:52.821Z,5.36
2022-12-18T16:19:58.425Z,5.29
2022-12-18T16:23:03.842Z,5.19
2022-12-18T16:26:09.272Z,5.22
2022-12-18T16:29:14.762Z,5.17
2022-12-18T16:32:22.473Z,5.22
2022-12-18T16:35:29.719Z,5.11
2022-12-18T16:38:35.149Z,5.05
2022-12-18T16:41:40.521Z,4.96
2022-12-18T16:44:47.112Z,4.85
2022-12-18T16:47:52.606Z,4.77
2022-12-18T16:51:06.091Z,4.87
2022-12-18T16:54:15.970Z,4.69
2022-12-18T16:57:25.323Z,4.70
2022-12-18T17:00:31.651Z,4.64
2022-12-18T17:03:37.538Z,4.60
2022-12-18T17:06:45.317Z,4.46
2022-12-18T17:09:51.376Z,4.51
2022-12-18T17:12:57.108Z,4.30
2022-12-18T17:16:09.951Z,4.41
2022-12-18T17:19:17.607Z,4.44
2022-12-18T17:22:26.101Z,4.31
2022-12-18T17:25:31.128Z,4.37
2022-12-18T17:28:38.101Z,4.34
2022-12-18T17:31:44.093Z,4.23
2022-12-18T17:34:49.295Z,4.17
2022-12-18T17:37:55.059Z,4.18
2022-12-18T17:41:05.669Z,4.08
2022-12-18T17:44:11.192Z,4.04
2022-12-18T17:47:17.126Z,4.03
2022-12-18T17:50:22.632Z,3.98
2022-12-18T17:53:28.056Z,3.96
2022-12-18T17:56:33.686Z,3.92
2022-12-18T17:59:39.544Z,4.03
2022-12-18T18:02:45.366Z,3.93
2022-12-18T18:05:57.548Z,3.89
2022-12-18T18:09:03.650Z,3.87
2022-12-18T18:12:28.160Z,3.92
2022-12-18T18:15:33.711Z,3.83
2022-12-18T18:18:40.591Z,3.83
2022-12-18T18:21:48.243Z,3.80
2022-12-18T18:24:54.127Z,3.81
2022-12-18T18:28:00.587Z,3.69
2022-12-18T18:31:08.041Z,3.65
2022-12-18T18:34:42.525Z,3.59
2022-12-18T18:37:49.256Z,3.41
2022-12-18T18:41:05.422Z,3.40
2022-12-18T18:44:12.450Z,3.39
2022-12-18T18:47:17.876Z,3.28
2022-12-18T18:50:23.684Z,3.39
2022-12-18T18:53:29.494Z,3.41
2022-12-18T18:57:11.759Z,3.34
2022-12-18T19:00:00.639Z,3.18
2022-12-18T19:03:07.066Z,3.16
2022-12-18T19:06:28.422Z,2.69
2022-12-18T19:09:36.817Z,2.76
2022-12-18T19:13:00.943Z,2.69
2022-12-18T19:16:09.576Z,2.40
2022-12-18T19:19:18.223Z,2.63
2022-12-18T19:22:24.229Z,2.65
2022-12-18T19:25:38.346Z,2.62
2022-12-18T19:28:47.831Z,2.70
2022-12-18T19:31:53.789Z,2.69
2022-12-18T19:34:59.526Z,2.72
2022-12-18T19:38:05.443Z,2.79
2022-12-18T19:41:11.377Z,2.72
2022-12-18T19:44:18.435Z,2.78
2022-12-18T19:47:24.579Z,2.74
2022-12-18T19:50:30.322Z,2.58
2022-12-18T19:53:38.479Z,2.64
2022-12-18T19:56:44.302Z,2.75
2022-12-18T19:59:49.893Z,2.60
2022-12-18T20:03:02.469Z,2.62
2022-12-18T20:06:20.561Z,2.57
2022-12-18T20:09:26.651Z,2.52
2022-12-18T20:12:34.161Z,2.48
2022-12-18T20:15:45.015Z,2.01
2022-12-18T20:18:51.437Z,2.30
2022-12-18T20:21:58.161Z,2.45
2022-12-18T20:25:03.653Z,2.36
2022-12-18T20:28:09.873Z,1.98
2022-12-18T20:31:15.567Z,2.26
2022-12-18T20:34:21.391Z,2.11
2022-12-18T20:37:27.328Z,2.24
2022-12-18T20:40:34.639Z,2.48
2022-12-18T20:43:40.707Z,2.68
2022-12-18T20:46:46.706Z,2.69
2022-12-18T20:49:52.622Z,2.80
2022-12-18T20:52:58.123Z,2.59
2022-12-18T20:56:18.905Z,2.66
2022-12-18T20:59:27.595Z,2.41
2022-12-18T21:02:33.709Z,2.46
2022-12-18T21:05:40.079Z,2.40
2022-12-18T21:08:47.564Z,2.24
2022-12-18T21:12:14.192Z,2.50
2022-12-18T21:15:25.300Z,2.52
2022-12-18T21:18:34.063Z,2.14
2022-12-18T21:21:40.475Z,1.78
2022-12-18T21:24:46.856Z,1.70
2022-12-18T21:27:52.804Z,1.60
2022-12-18T21:30:58.928Z,1.69
2022-12-18T21:34:06.284Z,2.03
2022-12-18T21:37:11.821Z,1.98
2022-12-18T21:40:18.254Z,2.24
2022-12-18T21:43:46.933Z,2.46
2022-12-18T21:46:58.202Z,1.69
2022-12-18T21:50:08.065Z,1.79
2022-12-18T21:53:13.658Z,2.04
2022-12-18T21:56:19.563Z,1.73
2022-12-18T21:59:29.326Z,1.61
2022-12-18T22:02:35.198Z,2.17
2022-12-18T22:05:41.026Z,2.10
2022-12-18T22:08:46.622Z,1.96
2022-12-18T22:11:53.179Z,1.62
2022-12-18T22:14:59.122Z,1.52
2022-12-18T22:18:04.761Z,1.33
2022-12-18T22:21:29.867Z,1.81
2022-12-18T22:24:35.392Z,1.95
2022-12-18T22:27:41.106Z,1.12
2022-12-18T22:30:46.615Z,1.36
2022-12-18T22:33:52.130Z,1.62
2022-12-18T22:36:57.658Z,1.93
2022-12-18T22:40:04.479Z,1.93
2022-12-18T22:43:10.917Z,1.74
2022-12-18T22:46:19.699Z,1.86
2022-12-18T22:49:26.780Z,1.83
2022-12-18T22:52:32.420Z,1.84
2022-12-18T22:55:38.146Z,1.96
2022-12-18T22:58:44.481Z,1.92
2022-12-18T23:01:58.339Z,1.56
2022-12-18T23:05:10.719Z,1.93
2022-12-18T23:08:16.410Z,2.05
2022-12-18T23:11:21.885Z,1.98
2022-12-18T23:14:29.047Z,1.97
2022-12-18T23:17:37.087Z,2.03
2022-12-18T23:20:42.498Z,1.94
2022-12-18T23:23:49.118Z,2.07
2022-12-18T23:26:55.062Z,2.09
2022-12-18T23:30:00.747Z,2.05
2022-12-18T23:33:06.089Z,2.15
2022-12-18T23:36:13.196Z,2.23
2022-12-18T23:39:29.898Z,2.18
2022-12-18T23:42:37.320Z,2.16
2022-12-18T23:45:43.097Z,2.21
2022-12-18T23:48:49.451Z,2.22
2022-12-18T23:51:55.501Z,2.27
2022-12-18T23:55:00.943Z,2.36
2022-12-18T23:58:06.971Z,2.26
